createdAt,value
2022-11-28T00:01:32.720Z,75.77
2022-11-28T00:04:35.022Z,75.83
2022-11-28T00:07:37.303Z,75.58
2022-11-28T00:10:41.116Z,76.19
2022-11-28T00:13:44.407Z,75.31
2022-11-28T00:16:47.395Z,75.45
2022-11-28T00:19:49.879Z,75.76
2022-11-28T00:22:52.318Z,75.24
2022-11-28T00:26:16.698Z,74.56
2022-11-28T00:29:18.980Z,74.85
2022-11-28T00:32:21.376Z,75.27
2022-11-28T00:35:23.740Z,74.91
2022-11-28T00:38:26.083Z,75.26
2022-11-28T00:41:31.075Z,74.71
2022-11-28T00:44:33.385Z,74.73
2022-11-28T00:47:35.730Z,74.63
2022-11-28T00:50:37.959Z,74.60
2022-11-28T00:53:42.570Z,74.15
2022-11-28T00:56:44.859Z,74.20
2022-11-28T00:59:47.152Z,74.17
2022-11-28T01:02:49.562Z,74.41
2022-11-28T01:05:51.866Z,74.41
2022-11-28T01:08:55.201Z,74.63
2022-11-28T01:11:57.539Z,74.54
2022-11-28T01:15:00.081Z,74.47
2022-11-28T01:18:02.856Z,74.56
2022-11-28T01:21:06.225Z,74.03
2022-11-28T01:24:08.793Z,74.49
2022-11-28T01:27:12.182Z,74.39
2022-11-28T01:30:14.603Z,73.82
2022-11-28T01:33:16.879Z,73.58
2022-11-28T01:36:20.061Z,73.63
2022-11-28T01:39:22.317Z,73.69
2022-11-28T01:42:24.734Z,73.73
2022-11-28T01:45:32.316Z,73.50
2022-11-28T01:48:39.695Z,73.26
2022-11-28T01:51:45.720Z,73.79
2022-11-28T01:54:52.096Z,74.03
2022-11-28T01:57:55.571Z,73.07
2022-11-28T02:00:58.466Z,73.51
2022-11-28T02:04:03.836Z,73.25
2022-11-28T02:07:06.244Z,73.83
2022-11-28T02:10:10.404Z,73.70
2022-11-28T02:13:23.908Z,73.72
2022-11-28T02:16:44.122Z,73.56
2022-11-28T02:19:46.583Z,74.15
2022-11-28T02:23:15.622Z,73.46
2022-11-28T02:26:43.348Z,72.58
2022-11-28T02:29:56.336Z,73.36
2022-11-28T02:33:30.129Z,73.34
2022-11-28T02:36:36.025Z,73.12
2022-11-28T02:40:14.201Z,72.95
2022-11-28T02:43:44.127Z,73.06
2022-11-28T02:46:58.598Z,73.06
2022-11-28T02:50:13.891Z,73.84
2022-11-28T02:53:20.465Z,73.23
2022-11-28T02:56:26.174Z,73.51
2022-11-28T02:59:33.470Z,73.44
2022-11-28T03:02:35.834Z,73.20
2022-11-28T03:05:54.197Z,73.37
2022-11-28T03:09:14.984Z,73.42
2022-11-28T03:12:36.067Z,73.19
2022-11-28T03:15:46.953Z,73.27
2022-11-28T03:19:07.720Z,73.40
2022-11-28T03:22:30.724Z,73.18
2022-11-28T03:25:48.395Z,73.38
2022-11-28T03:29:03.785Z,73.14
2022-11-28T03:32:10.072Z,73.30
2022-11-28T03:35:18.252Z,73.35
2022-11-28T03:38:25.604Z,73.75
2022-11-28T03:41:34.226Z,74.05
2022-11-28T03:45:00.020Z,73.69
2022-11-28T03:48:10.059Z,73.84
2022-11-28T03:51:19.055Z,73.81
2022-11-28T03:54:40.668Z,73.81
2022-11-28T03:57:59.289Z,73.87
2022-11-28T04:01:25.222Z,73.65
2022-11-28T04:04:37.038Z,73.54
2022-11-28T04:07:49.158Z,74.26
2022-11-28T04:11:09.136Z,73.97
2022-11-28T04:14:22.850Z,74.02
2022-11-28T04:17:50.359Z,73.95
2022-11-28T04:21:04.183Z,74.41
2022-11-28T04:24:11.031Z,70.98
2022-11-28T04:27:16.806Z,69.95
2022-11-28T04:30:19.281Z,69.10
2022-11-28T04:33:23.551Z,68.51
2022-11-28T04:36:27.029Z,69.47
2022-11-28T04:39:30.841Z,70.71
2022-11-28T04:42:38.085Z,71.35
2022-11-28T04:45:45.711Z,72.23
2022-11-28T04:48:48.249Z,72.70
2022-11-28T04:52:16.227Z,73.35
2022-11-28T04:55:27.357Z,73.67
2022-11-28T04:58:39.571Z,74.25
2022-11-28T05:01:43.698Z,73.08
2022-11-28T05:04:46.117Z,73.14
2022-11-28T05:07:48.464Z,73.23
2022-11-28T05:10:50.913Z,73.39
2022-11-28T05:13:54.192Z,73.96
2022-11-28T05:16:56.501Z,74.64
2022-11-28T05:19:59.070Z,74.37
2022-11-28T05:23:01.388Z,74.14
2022-11-28T05:26:08.183Z,73.70
2022-11-28T05:29:10.676Z,74.23
2022-11-28T05:32:13.673Z,73.32
2022-11-28T05:35:16.035Z,72.92
2022-11-28T05:38:18.301Z,74.13
2022-11-28T05:41:24.772Z,73.42
2022-11-28T05:44:27.397Z,73.48
2022-11-28T05:47:33.572Z,73.76
2022-11-28T05:50:39.888Z,73.20
2022-11-28T05:53:42.438Z,73.66
2022-11-28T05:56:44.747Z,73.01
2022-11-28T05:59:47.173Z,72.14
2022-11-28T06:02:49.455Z,72.97
2022-11-28T06:05:51.878Z,72.24
2022-11-28T06:08:54.743Z,72.37
2022-11-28T06:11:57.000Z,71.41
2022-11-28T06:14:59.331Z,71.47
2022-11-28T06:18:01.654Z,71.37
2022-11-28T06:21:05.525Z,72.33
2022-11-28T06:24:08.188Z,71.99
2022-11-28T06:27:10.528Z,71.47
2022-11-28T06:30:13.427Z,71.12
2022-11-28T06:33:15.806Z,71.42
2022-11-28T06:36:22.077Z,71.98
2022-11-28T06:39:24.551Z,71.48
2022-11-28T06:42:26.862Z,71.29
2022-11-28T06:45:29.563Z,70.66
2022-11-28T06:48:32.530Z,71.92
2022-11-28T06:51:34.801Z,70.65
2022-11-28T06:54:37.158Z,70.95
2022-11-28T06:57:39.809Z,70.30
2022-11-28T07:00:42.152Z,70.44
2022-11-28T07:03:44.816Z,70.63
2022-11-28T07:06:47.112Z,70.44
2022-11-28T07:09:51.068Z,70.83
2022-11-28T07:12:54.914Z,70.45
2022-11-28T07:15:57.154Z,71.26
2022-11-28T07:18:59.979Z,71.41
2022-11-28T07:22:02.384Z,71.27
2022-11-28T07:25:05.034Z,71.53
2022-11-28T07:28:07.371Z,71.45
2022-11-28T07:31:22.005Z,71.02
2022-11-28T07:34:24.344Z,71.87
2022-11-28T07:37:26.760Z,72.37
2022-11-28T07:40:29.059Z,70.91
2022-11-28T07:43:31.515Z,71.21
2022-11-28T07:46:34.336Z,70.35
2022-11-28T07:49:37.090Z,70.44
2022-11-28T07:52:39.404Z,69.96
2022-11-28T07:55:41.630Z,69.08
2022-11-28T07:58:45.464Z,68.89
2022-11-28T08:01:48.838Z,68.23
2022-11-28T08:04:55.110Z,67.53
2022-11-28T08:07:57.767Z,66.48
2022-11-28T08:11:02.252Z,66.00
2022-11-28T08:14:05.538Z,65.18
2022-11-28T08:17:07.874Z,66.07
2022-11-28T08:20:10.596Z,65.15
2022-11-28T08:23:12.840Z,65.30
2022-11-28T08:26:16.867Z,65.44
2022-11-28T08:29:19.138Z,69.97
2022-11-28T08:32:21.415Z,64.47
2022-11-28T08:35:23.872Z,64.24
2022-11-28T08:38:26.163Z,65.21
2022-11-28T08:41:28.599Z,65.48
2022-11-28T08:44:31.047Z,67.07
2022-11-28T08:47:33.694Z,65.49
2022-11-28T08:50:36.090Z,64.48
2022-11-28T08:53:38.385Z,64.99
2022-11-28T08:56:40.705Z,65.84
2022-11-28T08:59:43.338Z,63.82
2022-11-28T09:02:45.799Z,64.25
2022-11-28T09:05:48.602Z,63.99
2022-11-28T09:08:51.550Z,63.94
2022-11-28T09:11:53.844Z,64.72
2022-11-28T09:14:56.121Z,65.08
2022-11-28T09:17:58.764Z,65.27
2022-11-28T09:21:02.808Z,64.71
2022-11-28T09:24:05.609Z,64.85
2022-11-28T09:27:07.965Z,63.24
2022-11-28T09:30:10.715Z,63.38
2022-11-28T09:33:13.536Z,63.69
2022-11-28T09:36:21.369Z,63.96
2022-11-28T09:39:23.771Z,63.98
2022-11-28T09:42:33.916Z,64.37
2022-11-28T09:45:36.268Z,61.72
2022-11-28T09:48:42.984Z,61.50
2022-11-28T09:52:03.823Z,61.55
2022-11-28T09:55:35.683Z,61.90
2022-11-28T09:58:58.988Z,62.43
2022-11-28T10:02:26.182Z,61.71
2022-11-28T10:05:40.073Z,62.13
2022-11-28T10:08:47.521Z,63.06
2022-11-28T10:12:17.560Z,62.41
2022-11-28T10:15:26.192Z,62.38
2022-11-28T10:18:35.831Z,63.02
2022-11-28T10:21:42.613Z,62.72
2022-11-28T10:24:57.425Z,62.82
2022-11-28T10:27:59.804Z,62.54
2022-11-28T10:31:16.768Z,64.18
2022-11-28T10:34:46.598Z,63.44
2022-11-28T10:37:49.380Z,63.15
2022-11-28T10:41:04.967Z,65.51
2022-11-28T10:44:21.635Z,62.74
2022-11-28T10:48:03.988Z,62.33
2022-11-28T10:51:44.176Z,63.03
2022-11-28T10:54:46.444Z,61.89
2022-11-28T10:58:22.304Z,61.00
2022-11-28T11:01:29.873Z,62.20
2022-11-28T11:04:33.891Z,61.36
2022-11-28T11:07:36.316Z,61.84
2022-11-28T11:10:44.259Z,60.00
2022-11-28T11:14:01.546Z,60.83
2022-11-28T11:17:04.130Z,61.31
2022-11-28T11:20:34.441Z,62.41
2022-11-28T11:23:38.453Z,61.46
2022-11-28T11:26:44.103Z,59.76
2022-11-28T11:29:50.285Z,60.65
2022-11-28T11:32:54.798Z,60.56
2022-11-28T11:35:57.059Z,60.69
2022-11-28T11:39:09.199Z,59.94
2022-11-28T11:42:20.808Z,60.58
2022-11-28T11:45:29.765Z,60.70
2022-11-28T11:48:46.084Z,60.36
2022-11-28T11:51:56.313Z,59.66
2022-11-28T11:55:04.451Z,60.15
2022-11-28T11:58:07.206Z,60.30
2022-11-28T12:01:11.477Z,59.55
2022-11-28T12:19:56.939Z,61.50
2022-11-28T12:39:33.542Z,61.12
2022-11-28T12:47:52.562Z,62.31
2022-11-28T12:51:16.321Z,61.74
2022-11-28T12:54:36.951Z,61.89
2022-11-28T12:58:04.030Z,62.65
2022-11-28T13:01:31.026Z,62.09
2022-11-28T13:04:51.417Z,62.61
2022-11-28T13:07:56.835Z,62.27
2022-11-28T13:10:59.181Z,62.43
2022-11-28T13:14:17.470Z,61.64
2022-11-28T13:17:30.733Z,61.81
2022-11-28T13:20:42.251Z,61.80
2022-11-28T13:24:05.317Z,61.46
2022-11-28T13:27:32.424Z,61.74
2022-11-28T13:30:44.591Z,63.19
2022-11-28T13:33:56.744Z,63.83
2022-11-28T13:40:53.119Z,64.50
2022-11-28T13:44:26.357Z,63.94
2022-11-28T13:47:33.660Z,64.63
2022-11-28T13:50:40.424Z,64.51
2022-11-28T13:53:44.169Z,64.01
2022-11-28T13:57:05.705Z,65.14
2022-11-28T14:00:25.314Z,64.86
2022-11-28T14:03:27.837Z,65.67
2022-11-28T14:06:46.929Z,65.17
2022-11-28T14:10:31.580Z,64.76
2022-11-28T14:13:52.658Z,64.65
2022-11-28T14:17:21.554Z,64.52
2022-11-28T14:20:55.097Z,64.59
2022-11-28T14:24:10.764Z,64.74
2022-11-28T14:27:28.359Z,63.84
2022-11-28T14:30:36.476Z,65.17
2022-11-28T14:33:40.901Z,65.19
2022-11-28T14:36:43.921Z,65.66
2022-11-28T14:39:50.238Z,65.34
2022-11-28T14:43:42.667Z,65.54
2022-11-28T14:47:16.121Z,66.08
2022-11-28T14:50:20.788Z,66.27
2022-11-28T14:53:37.129Z,65.87
2022-11-28T14:56:40.507Z,66.07
2022-11-28T14:59:43.581Z,65.98
2022-11-28T15:03:23.683Z,66.53
2022-11-28T15:06:33.211Z,66.82
2022-11-28T15:09:42.880Z,68.60
2022-11-28T15:12:52.107Z,67.86
2022-11-28T15:15:54.622Z,67.87
2022-11-28T15:19:08.781Z,68.29
2022-11-28T15:22:31.851Z,67.33
2022-11-28T15:25:37.370Z,68.07
2022-11-28T15:28:39.707Z,68.72
2022-11-28T15:31:43.179Z,68.52
2022-11-28T15:35:00.750Z,68.98
2022-11-28T15:38:04.061Z,68.74
2022-11-28T15:41:07.037Z,68.33
2022-11-28T15:44:13.043Z,69.05
2022-11-28T15:47:20.062Z,69.23
2022-11-28T15:50:25.338Z,68.80
2022-11-28T15:53:28.876Z,68.60
2022-11-28T15:56:31.473Z,68.56
2022-11-28T15:59:34.068Z,68.77
2022-11-28T16:02:36.981Z,69.56
2022-11-28T16:05:51.484Z,68.71
2022-11-28T16:09:04.193Z,68.90
2022-11-28T16:12:12.977Z,68.89
2022-11-28T16:15:23.100Z,69.35
2022-11-28T16:18:26.836Z,69.61
2022-11-28T16:21:33.853Z,69.16
2022-11-28T16:24:55.593Z,69.31
2022-11-28T16:27:58.423Z,70.03
2022-11-28T16:31:00.830Z,70.56
2022-11-28T16:34:03.492Z,71.07
2022-11-28T16:37:11.137Z,70.78
2022-11-28T16:40:17.126Z,70.46
2022-11-28T16:43:40.518Z,70.94
2022-11-28T16:46:51.811Z,71.22
2022-11-28T16:50:14.207Z,70.91
2022-11-28T16:53:46.292Z,70.94
2022-11-28T16:56:48.701Z,70.65
2022-11-28T16:59:54.951Z,70.28
2022-11-28T17:02:57.579Z,70.53
2022-11-28T17:05:59.884Z,70.78
2022-11-28T17:09:02.327Z,70.71
2022-11-28T17:12:07.756Z,70.88
2022-11-28T17:15:16.186Z,71.02
2022-11-28T17:18:18.509Z,70.67
2022-11-28T17:21:46.471Z,70.63
2022-11-28T17:24:50.107Z,71.36
2022-11-28T17:27:53.074Z,71.25
2022-11-28T17:30:58.506Z,71.05
2022-11-28T17:34:00.808Z,70.84
2022-11-28T17:37:03.365Z,70.73
2022-11-28T17:40:25.324Z,71.07
2022-11-28T17:43:27.912Z,70.80
2022-11-28T17:46:30.346Z,70.23
2022-11-28T17:49:32.990Z,70.53
2022-11-28T17:52:35.229Z,70.02
2022-11-28T17:55:42.342Z,69.51
2022-11-28T17:58:44.987Z,69.77
2022-11-28T18:01:48.612Z,69.48
2022-11-28T18:04:50.856Z,69.66
2022-11-28T18:07:53.598Z,69.14
2022-11-28T18:11:08.902Z,70.14
2022-11-28T18:14:11.990Z,69.37
2022-11-28T18:17:14.329Z,68.87
2022-11-28T18:20:16.729Z,69.20
2022-11-28T18:23:19.288Z,69.43
2022-11-28T18:26:24.116Z,69.64
2022-11-28T18:29:26.941Z,69.08
2022-11-28T18:32:29.834Z,70.17
2022-11-28T18:35:32.730Z,69.90
2022-11-28T18:38:35.101Z,69.11
2022-11-28T18:41:37.524Z,69.58
2022-11-28T18:44:39.767Z,69.47
2022-11-28T18:47:42.163Z,69.53
2022-11-28T18:50:44.431Z,69.72
2022-11-28T18:53:48.228Z,70.16
2022-11-28T18:56:50.741Z,70.33
2022-11-28T18:59:55.298Z,69.97
2022-11-28T19:02:57.910Z,69.78
2022-11-28T19:06:00.255Z,70.07
2022-11-28T19:09:12.246Z,69.73
2022-11-28T19:12:15.251Z,70.19
2022-11-28T19:15:17.546Z,70.03
2022-11-28T19:18:19.836Z,70.16
2022-11-28T19:21:24.379Z,70.28
2022-11-28T19:24:27.037Z,70.14
2022-11-28T19:27:29.393Z,70.51
2022-11-28T19:30:31.641Z,70.34
2022-11-28T19:33:34.133Z,70.90
2022-11-28T19:36:45.475Z,70.90
2022-11-28T19:39:47.951Z,70.30
2022-11-28T19:42:50.246Z,70.32
2022-11-28T19:45:56.731Z,70.07
2022-11-28T19:48:59.127Z,69.57
2022-11-28T19:52:01.378Z,69.80
2022-11-28T19:55:03.831Z,69.67
2022-11-28T19:58:06.167Z,70.18
2022-11-28T20:01:23.078Z,70.16
2022-11-28T20:04:27.796Z,69.70
2022-11-28T20:07:30.139Z,69.74
2022-11-28T20:10:36.093Z,70.12
2022-11-28T20:13:39.140Z,69.86
2022-11-28T20:16:41.887Z,69.43
2022-11-28T20:19:45.746Z,69.48
2022-11-28T20:22:48.385Z,70.09
2022-11-28T20:25:50.713Z,70.43
2022-11-28T20:28:54.660Z,69.80
2022-11-28T20:31:57.531Z,69.59
2022-11-28T20:35:01.786Z,70.13
2022-11-28T20:38:04.146Z,69.74
2022-11-28T20:41:09.048Z,69.41
2022-11-28T20:44:11.444Z,70.50
2022-11-28T20:47:13.979Z,70.44
2022-11-28T20:50:16.247Z,70.14
2022-11-28T20:53:23.664Z,69.71
2022-11-28T20:56:30.953Z,69.81
2022-11-28T20:59:33.387Z,69.64
2022-11-28T21:02:35.741Z,69.59
2022-11-28T21:05:38.145Z,69.55
2022-11-28T21:08:41.020Z,70.04
2022-11-28T21:11:56.987Z,70.10
2022-11-28T21:15:02.104Z,70.41
2022-11-28T21:18:04.759Z,70.49
2022-11-28T21:21:18.463Z,70.84
2022-11-28T21:24:20.781Z,70.75
2022-11-28T21:27:23.080Z,70.38
2022-11-28T21:30:25.344Z,70.19
2022-11-28T21:33:27.588Z,70.50
2022-11-28T21:36:30.542Z,69.85
2022-11-28T21:39:32.883Z,69.95
2022-11-28T21:42:35.133Z,69.84
2022-11-28T21:45:37.667Z,69.76
2022-11-28T21:48:40.145Z,70.11
2022-11-28T21:51:42.467Z,69.68
2022-11-28T21:54:44.889Z,70.10
2022-11-28T21:57:47.520Z,70.27
2022-11-28T22:00:56.462Z,70.48
2022-11-28T22:04:02.827Z,70.36
2022-11-28T22:07:07.068Z,69.96
2022-11-28T22:10:09.667Z,69.49
2022-11-28T22:13:12.059Z,69.79
2022-11-28T22:16:19.603Z,70.58
2022-11-28T22:19:22.338Z,70.42
2022-11-28T22:22:27.438Z,70.82
2022-11-28T22:25:29.840Z,70.78
2022-11-28T22:28:34.203Z,71.42
2022-11-28T22:31:36.745Z,70.94
2022-11-28T22:34:40.185Z,70.46
2022-11-28T22:37:43.511Z,70.95
2022-11-28T22:40:45.961Z,71.32
2022-11-28T22:43:48.584Z,71.13
2022-11-28T22:46:52.448Z,70.97
2022-11-28T22:49:54.721Z,71.45
2022-11-28T22:52:57.134Z,70.71
2022-11-28T22:56:07.781Z,71.21
2022-11-28T22:59:14.651Z,71.06
2022-11-28T23:02:17.467Z,71.42
2022-11-28T23:05:20.604Z,70.78
2022-11-28T23:08:23.611Z,71.13
2022-11-28T23:11:28.104Z,71.23
2022-11-28T23:14:30.777Z,70.88
2022-11-28T23:17:33.978Z,70.71
2022-11-28T23:20:36.430Z,70.88
2022-11-28T23:23:39.509Z,71.00
2022-11-28T23:26:42.108Z,70.88
2022-11-28T23:29:44.861Z,71.10
2022-11-28T23:32:48.700Z,71.07
2022-11-28T23:35:51.224Z,71.32
2022-11-28T23:38:58.958Z,71.07
2022-11-28T23:42:01.334Z,71.55
2022-11-28T23:45:04.103Z,72.47
2022-11-28T23:48:06.571Z,72.23
2022-11-28T23:51:08.866Z,72.42
2022-11-28T23:54:11.893Z,72.18
2022-11-28T23:57:14.154Z,72.00
